createdAt,value
2017-05-22T00:01:53.923Z,14.85
2017-05-22T00:06:50.106Z,14.89
2017-05-22T00:11:45.822Z,15.03
2017-05-22T00:16:43.545Z,14.99
2017-05-22T00:21:40.245Z,14.77
2017-05-22T00:26:35.684Z,14.89
2017-05-22T00:31:31.971Z,14.91
2017-05-22T00:36:27.949Z,14.86
2017-05-22T00:41:24.150Z,14.91
2017-05-22T00:46:20.843Z,15.00
2017-05-22T00:51:17.180Z,15.14
2017-05-22T00:56:13.189Z,14.84
2017-05-22T01:01:09.369Z,14.85
2017-05-22T01:06:06.304Z,14.58
2017-05-22T01:11:01.859Z,14.45
2017-05-22T01:15:58.458Z,14.59
2017-05-22T01:20:54.410Z,14.58
2017-05-22T01:25:50.553Z,14.62
2017-05-22T01:30:46.251Z,14.37
2017-05-22T01:35:43.654Z,14.32
2017-05-22T01:40:40.714Z,14.35
2017-05-22T01:45:37.043Z,14.60
2017-05-22T01:50:33.013Z,14.58
2017-05-22T01:55:30.062Z,14.50
2017-05-22T02:00:25.999Z,14.32
2017-05-22T02:05:21.866Z,14.07
2017-05-22T02:10:17.908Z,13.97
2017-05-22T02:15:13.849Z,14.20
2017-05-22T02:20:09.878Z,14.03
2017-05-22T02:25:07.028Z,13.81
2017-05-22T02:30:02.588Z,13.68
2017-05-22T02:34:58.470Z,13.81
2017-05-22T02:39:54.926Z,13.89
2017-05-22T02:44:50.774Z,13.93
2017-05-22T02:49:47.147Z,13.93
2017-05-22T02:54:43.863Z,13.81
2017-05-22T02:59:40.450Z,13.57
2017-05-22T03:04:36.002Z,13.71
2017-05-22T03:09:31.913Z,13.56
2017-05-22T03:14:27.915Z,13.87
2017-05-22T03:19:23.967Z,13.71
2017-05-22T03:24:20.046Z,13.60
2017-05-22T03:29:16.762Z,13.38
2017-05-22T03:34:12.192Z,13.30
2017-05-22T03:39:08.168Z,13.15
2017-05-22T03:44:05.217Z,13.28
2017-05-22T03:49:01.063Z,13.04
2017-05-22T03:53:56.783Z,13.05
2017-05-22T03:58:53.101Z,13.05
2017-05-22T04:03:48.760Z,12.97
2017-05-22T04:08:45.593Z,12.98
2017-05-22T04:13:41.761Z,13.05
2017-05-22T04:18:37.774Z,13.09
2017-05-22T04:23:33.613Z,13.05
2017-05-22T04:28:30.403Z,13.23
2017-05-22T04:33:27.329Z,13.46
2017-05-22T04:38:22.934Z,13.57
2017-05-22T04:43:20.468Z,13.90
2017-05-22T04:48:16.288Z,14.32
2017-05-22T04:53:15.108Z,14.62
2017-05-22T04:58:13.297Z,14.99
2017-05-22T05:03:09.190Z,15.29
2017-05-22T05:08:05.687Z,15.62
2017-05-22T05:13:02.107Z,15.65
2017-05-22T05:17:58.133Z,15.76
2017-05-22T05:22:54.689Z,15.75
2017-05-22T05:27:50.521Z,16.00
2017-05-22T05:32:46.738Z,16.16
2017-05-22T05:37:43.517Z,16.17
2017-05-22T05:42:40.066Z,16.33
2017-05-22T05:47:35.998Z,16.72
2017-05-22T05:52:34.888Z,16.74
2017-05-22T05:57:32.413Z,16.66
2017-05-22T06:02:27.338Z,16.20
2017-05-22T06:07:22.957Z,16.24
2017-05-22T06:12:19.014Z,16.17
2017-05-22T06:17:14.878Z,16.16
2017-05-22T06:22:14.602Z,16.33
2017-05-22T06:27:10.422Z,16.41
2017-05-22T06:32:10.800Z,16.57
2017-05-22T06:42:13.498Z,16.68
2017-05-22T06:47:08.993Z,16.75
2017-05-22T06:52:05.683Z,16.76
2017-05-22T06:57:03.158Z,16.91
2017-05-22T07:02:00.806Z,16.99
2017-05-22T07:12:00.584Z,17.20
2017-05-22T07:21:57.362Z,17.36
2017-05-22T07:26:53.975Z,17.56
2017-05-22T07:31:50.657Z,17.70
2017-05-22T07:36:48.916Z,17.68
2017-05-22T07:41:44.375Z,17.92
2017-05-22T07:46:41.306Z,18.78
2017-05-22T07:51:40.886Z,19.92
2017-05-22T08:01:43.433Z,21.36
2017-05-22T08:06:41.693Z,21.67
2017-05-22T08:11:38.607Z,22.90
2017-05-22T08:16:36.099Z,23.58
2017-05-22T08:21:33.495Z,23.65
2017-05-22T08:26:30.673Z,24.11
2017-05-22T08:31:27.634Z,24.32
2017-05-22T08:36:24.574Z,24.29
2017-05-22T08:41:21.307Z,24.30
2017-05-22T08:46:17.394Z,23.98
2017-05-22T08:51:13.903Z,24.50
2017-05-22T08:56:10.502Z,23.86
2017-05-22T09:01:06.015Z,23.95
2017-05-22T09:06:02.911Z,23.92
2017-05-22T09:10:59.148Z,24.11
2017-05-22T09:15:59.145Z,24.77
2017-05-22T09:20:55.238Z,24.20
2017-05-22T09:30:51.331Z,23.28
2017-05-22T09:40:52.202Z,24.03
2017-05-22T09:45:48.010Z,23.93
2017-05-22T09:50:45.091Z,23.81
2017-05-22T09:55:40.357Z,23.34
2017-05-22T10:00:37.204Z,23.96
2017-05-22T10:05:33.536Z,23.46
2017-05-22T10:10:29.721Z,23.54
2017-05-22T10:15:27.449Z,24.35
2017-05-22T10:20:23.964Z,24.48
2017-05-22T10:25:20.174Z,23.71
2017-05-22T10:30:16.960Z,23.48
2017-05-22T10:35:12.890Z,23.81
2017-05-22T10:40:09.240Z,24.39
2017-05-22T10:45:06.176Z,24.89
2017-05-22T10:50:06.213Z,24.78
2017-05-22T10:55:02.377Z,24.29
2017-05-22T10:59:55.730Z,24.28
2017-05-22T11:04:52.626Z,23.58
2017-05-22T11:09:50.887Z,24.38
2017-05-22T11:14:47.501Z,24.29
2017-05-22T11:19:43.323Z,23.74
2017-05-22T11:24:40.684Z,23.95
2017-05-22T11:29:37.383Z,23.93
2017-05-22T11:34:34.029Z,24.23
2017-05-22T11:39:30.833Z,24.78
2017-05-22T11:44:30.829Z,23.99
2017-05-22T11:49:26.279Z,24.01
2017-05-22T11:54:25.855Z,22.47
2017-05-22T11:59:21.751Z,22.98
2017-05-22T12:09:24.245Z,24.29
2017-05-22T12:14:21.222Z,24.73
2017-05-22T12:19:17.310Z,24.84
2017-05-22T12:24:14.107Z,24.73
2017-05-22T12:29:09.638Z,24.17
2017-05-22T12:34:05.115Z,24.76
2017-05-22T12:39:04.025Z,25.43
2017-05-22T12:43:59.702Z,25.47
2017-05-22T12:48:55.903Z,25.14
2017-05-22T12:53:51.502Z,24.68
2017-05-22T12:58:46.730Z,24.74
2017-05-22T13:03:42.384Z,24.39
2017-05-22T13:08:37.423Z,24.05
2017-05-22T13:13:32.630Z,24.69
2017-05-22T13:18:30.304Z,25.07
2017-05-22T13:23:26.187Z,24.77
2017-05-22T13:28:21.689Z,23.92
2017-05-22T13:33:19.660Z,24.18
2017-05-22T13:38:14.962Z,24.58
2017-05-22T13:43:10.803Z,24.95
2017-05-22T13:48:07.155Z,24.77
2017-05-22T13:53:02.535Z,23.48
2017-05-22T13:57:58.024Z,23.58
2017-05-22T14:02:54.067Z,23.98
2017-05-22T14:07:52.442Z,23.96
2017-05-22T14:12:47.513Z,23.91
2017-05-22T14:17:42.287Z,23.46
2017-05-22T14:22:37.766Z,23.34
2017-05-22T14:27:32.646Z,23.47
2017-05-22T14:32:28.012Z,23.54
2017-05-22T14:37:23.790Z,23.27
2017-05-22T14:42:19.323Z,23.31
2017-05-22T14:47:15.217Z,23.48
2017-05-22T14:52:11.474Z,23.27
2017-05-22T14:57:07.186Z,23.27
2017-05-22T15:02:02.968Z,23.03
2017-05-22T15:06:58.650Z,22.81
2017-05-22T15:11:54.388Z,22.94
2017-05-22T15:16:51.437Z,23.03
2017-05-22T15:21:47.187Z,23.10
2017-05-22T15:26:43.033Z,23.18
2017-05-22T15:31:42.406Z,23.12
2017-05-22T15:36:37.633Z,23.03
2017-05-22T15:41:33.313Z,22.98
2017-05-22T15:46:29.143Z,23.02
2017-05-22T15:51:25.363Z,23.03
2017-05-22T15:56:21.472Z,23.13
2017-05-22T16:01:17.519Z,23.03
2017-05-22T16:06:13.458Z,23.17
2017-05-22T16:11:10.794Z,23.23
2017-05-22T16:16:06.338Z,23.20
2017-05-22T16:21:02.136Z,23.13
2017-05-22T16:25:57.855Z,23.05
2017-05-22T16:30:53.754Z,23.06
2017-05-22T16:35:49.776Z,23.02
2017-05-22T16:40:46.320Z,23.20
2017-05-22T16:45:42.619Z,23.15
2017-05-22T16:50:38.635Z,23.32
2017-05-22T16:55:34.859Z,23.15
2017-05-22T17:00:30.796Z,23.09
2017-05-22T17:05:26.816Z,23.10
2017-05-22T17:10:22.629Z,23.13
2017-05-22T17:15:18.706Z,23.10
2017-05-22T17:20:14.419Z,23.10
2017-05-22T17:25:10.159Z,22.96
2017-05-22T17:30:06.114Z,22.83
2017-05-22T17:35:03.298Z,22.73
2017-05-22T17:39:59.379Z,22.50
2017-05-22T17:44:54.897Z,22.47
2017-05-22T17:49:50.597Z,22.23
2017-05-22T17:54:46.196Z,22.18
2017-05-22T17:59:41.872Z,22.07
2017-05-22T18:04:38.198Z,21.98
2017-05-22T18:09:33.573Z,21.77
2017-05-22T18:14:29.707Z,21.76
2017-05-22T18:19:25.477Z,21.77
2017-05-22T18:24:21.270Z,21.77
2017-05-22T18:29:18.063Z,21.77
2017-05-22T18:34:13.534Z,21.77
2017-05-22T18:39:09.876Z,21.66
2017-05-22T18:44:05.341Z,21.60
2017-05-22T18:49:01.260Z,21.52
2017-05-22T18:53:58.042Z,21.48
2017-05-22T18:58:53.436Z,21.35
2017-05-22T19:03:49.292Z,21.24
2017-05-22T19:08:51.223Z,21.17
2017-05-22T19:13:45.696Z,21.02
2017-05-22T19:18:42.446Z,20.96
2017-05-22T19:23:37.779Z,20.87
2017-05-22T19:28:37.713Z,20.70
2017-05-22T19:33:39.548Z,20.62
2017-05-22T19:38:38.177Z,20.51
2017-05-22T19:43:32.871Z,20.43
2017-05-22T19:48:28.712Z,20.34
2017-05-22T19:53:24.374Z,20.21
2017-05-22T19:58:20.167Z,20.25
2017-05-22T20:03:19.464Z,20.16
2017-05-22T20:08:17.858Z,20.13
2017-05-22T20:13:27.392Z,20.03
2017-05-22T20:18:25.730Z,20.03
2017-05-22T20:23:21.128Z,19.99
2017-05-22T20:28:17.627Z,19.88
2017-05-22T20:33:14.963Z,19.76
2017-05-22T20:38:10.901Z,19.73
2017-05-22T20:43:06.691Z,19.64
2017-05-22T20:48:02.094Z,19.59
2017-05-22T20:52:57.753Z,19.56
2017-05-22T20:57:54.773Z,19.56
2017-05-22T21:02:56.616Z,19.47
2017-05-22T21:07:50.899Z,19.36
2017-05-22T21:12:58.071Z,19.33
2017-05-22T21:17:52.928Z,19.34
2017-05-22T21:22:49.681Z,19.40
2017-05-22T21:27:44.914Z,19.31
2017-05-22T21:32:40.445Z,19.16
2017-05-22T21:37:36.235Z,19.11
2017-05-22T21:42:32.136Z,19.07
2017-05-22T21:47:28.028Z,19.04
2017-05-22T21:52:23.970Z,19.04
2017-05-22T21:57:19.904Z,19.04
2017-05-22T22:02:16.756Z,19.04
2017-05-22T22:07:13.653Z,18.95
2017-05-22T22:12:09.419Z,18.99
2017-05-22T22:17:05.600Z,18.92
2017-05-22T22:22:02.293Z,18.90
2017-05-22T22:26:57.915Z,18.84
2017-05-22T22:31:53.604Z,18.88
2017-05-22T22:36:50.774Z,18.86
2017-05-22T22:41:46.669Z,18.83
2017-05-22T22:46:42.269Z,18.75
2017-05-22T22:51:38.644Z,18.75
2017-05-22T22:56:34.638Z,18.83
2017-05-22T23:01:30.078Z,18.96
2017-05-22T23:06:29.438Z,18.98
2017-05-22T23:11:24.650Z,18.90
2017-05-22T23:16:20.697Z,18.90
2017-05-22T23:21:16.319Z,18.89
2017-05-22T23:26:12.026Z,19.00
2017-05-22T23:31:07.684Z,18.93
2017-05-22T23:36:09.167Z,18.88
2017-05-22T23:41:03.416Z,18.88
2017-05-22T23:45:59.166Z,18.80
2017-05-22T23:50:55.027Z,18.83
2017-05-22T23:55:50.427Z,18.70
